sensor_id;sensor_type;location;lat;lon;timestamp;P1;durP1;ratioP1;P2;durP2;ratioP2
28834;SDS011;15969;51.536;11.884;2022-09-20T00:02:16;4.43;;;1.50;;
28834;SDS011;15969;51.536;11.884;2022-09-20T00:04:42;2.87;;;1.27;;
28834;SDS011;15969;51.536;11.884;2022-09-20T00:07:07;5.07;;;1.70;;
28834;SDS011;15969;51.536;11.884;2022-09-20T00:09:33;4.87;;;1.50;;
28834;SDS011;15969;51.536;11.884;2022-09-20T00:11:59;4.07;;;1.43;;
28834;SDS011;15969;51.536;11.884;2022-09-20T00:14:24;4.63;;;1.80;;
28834;SDS011;15969;51.536;11.884;2022-09-20T00:16:50;6.37;;;1.83;;
28834;SDS011;15969;51.536;11.884;2022-09-20T00:19:17;5.97;;;1.50;;
28834;SDS011;15969;51.536;11.884;2022-09-20T00:21:44;9.13;;;1.30;;
28834;SDS011;15969;51.536;11.884;2022-09-20T00:24:09;6.87;;;1.80;;
28834;SDS011;15969;51.536;11.884;2022-09-20T00:26:35;9.27;;;2.13;;
28834;SDS011;15969;51.536;11.884;2022-09-20T00:29:01;6.90;;;1.80;;
28834;SDS011;15969;51.536;11.884;2022-09-20T00:31:26;8.70;;;1.97;;
28834;SDS011;15969;51.536;11.884;2022-09-20T00:33:53;5.73;;;1.60;;
28834;SDS011;15969;51.536;11.884;2022-09-20T00:36:38;5.20;;;1.37;;
28834;SDS011;15969;51.536;11.884;2022-09-20T00:39:03;6.97;;;1.57;;
28834;SDS011;15969;51.536;11.884;2022-09-20T00:41:29;5.80;;;1.53;;
28834;SDS011;15969;51.536;11.884;2022-09-20T00:43:56;6.63;;;1.97;;
28834;SDS011;15969;51.536;11.884;2022-09-20T00:46:23;7.50;;;2.23;;
28834;SDS011;15969;51.536;11.884;2022-09-20T00:49:02;7.27;;;2.03;;
28834;SDS011;15969;51.536;11.884;2022-09-20T00:51:35;4.47;;;1.30;;
28834;SDS011;15969;51.536;11.884;2022-09-20T00:54:02;5.53;;;1.97;;
28834;SDS011;15969;51.536;11.884;2022-09-20T00:56:33;3.37;;;1.53;;
28834;SDS011;15969;51.536;11.884;2022-09-20T01:01:39;10.03;;;2.03;;
28834;SDS011;15969;51.536;11.884;2022-09-20T01:04:06;4.77;;;1.50;;
28834;SDS011;15969;51.536;11.884;2022-09-20T01:06:32;5.90;;;1.60;;
28834;SDS011;15969;51.536;11.884;2022-09-20T01:08:59;9.10;;;1.90;;
28834;SDS011;15969;51.536;11.884;2022-09-20T01:11:29;6.13;;;1.63;;
28834;SDS011;15969;51.536;11.884;2022-09-20T01:13:55;9.10;;;2.60;;
28834;SDS011;15969;51.536;11.884;2022-09-20T01:16:21;7.13;;;1.60;;
28834;SDS011;15969;51.536;11.884;2022-09-20T01:18:48;8.87;;;1.80;;
28834;SDS011;15969;51.536;11.884;2022-09-20T01:21:15;7.30;;;1.80;;
28834;SDS011;15969;51.536;11.884;2022-09-20T01:32:35;6.63;;;1.80;;
28834;SDS011;15969;51.536;11.884;2022-09-20T01:35:17;9.03;;;1.73;;
28834;SDS011;15969;51.536;11.884;2022-09-20T01:40:32;5.10;;;1.60;;
28834;SDS011;15969;51.536;11.884;2022-09-20T01:43:08;7.47;;;1.70;;
28834;SDS011;15969;51.536;11.884;2022-09-20T01:45:55;7.63;;;1.50;;
28834;SDS011;15969;51.536;11.884;2022-09-20T01:48:34;8.00;;;2.57;;
28834;SDS011;15969;51.536;11.884;2022-09-20T01:51:26;6.60;;;1.60;;
28834;SDS011;15969;51.536;11.884;2022-09-20T01:54:12;9.63;;;1.70;;
28834;SDS011;15969;51.536;11.884;2022-09-20T01:56:53;7.67;;;1.87;;
28834;SDS011;15969;51.536;11.884;2022-09-20T02:02:32;5.53;;;2.10;;
28834;SDS011;15969;51.536;11.884;2022-09-20T02:08:08;8.10;;;1.87;;
28834;SDS011;15969;51.536;11.884;2022-09-20T02:11:02;9.83;;;1.97;;
28834;SDS011;15969;51.536;11.884;2022-09-20T02:27:25;6.43;;;1.80;;
28834;SDS011;15969;51.536;11.884;2022-09-20T02:38:53;5.93;;;1.57;;
28834;SDS011;15969;51.536;11.884;2022-09-20T02:41:36;7.60;;;1.80;;
28834;SDS011;15969;51.536;11.884;2022-09-20T02:44:20;7.57;;;2.00;;
28834;SDS011;15969;51.536;11.884;2022-09-20T02:46:54;5.63;;;1.67;;
28834;SDS011;15969;51.536;11.884;2022-09-20T02:52:41;8.40;;;1.97;;
28834;SDS011;15969;51.536;11.884;2022-09-20T02:58:36;10.03;;;1.93;;
28834;SDS011;15969;51.536;11.884;2022-09-20T03:01:25;7.50;;;1.53;;
28834;SDS011;15969;51.536;11.884;2022-09-20T03:17:55;3.53;;;1.60;;
28834;SDS011;15969;51.536;11.884;2022-09-20T03:20:45;6.93;;;2.17;;
28834;SDS011;15969;51.536;11.884;2022-09-20T03:23:34;3.63;;;1.30;;
28834;SDS011;15969;51.536;11.884;2022-09-20T03:28:52;7.53;;;1.53;;
28834;SDS011;15969;51.536;11.884;2022-09-20T03:31:32;8.07;;;1.87;;
28834;SDS011;15969;51.536;11.884;2022-09-20T03:34:08;5.93;;;1.80;;
28834;SDS011;15969;51.536;11.884;2022-09-20T03:42:29;6.27;;;1.63;;
28834;SDS011;15969;51.536;11.884;2022-09-20T03:45:00;7.07;;;1.80;;
28834;SDS011;15969;51.536;11.884;2022-09-20T03:56:04;7.13;;;1.67;;
28834;SDS011;15969;51.536;11.884;2022-09-20T04:07:03;7.63;;;2.20;;
28834;SDS011;15969;51.536;11.884;2022-09-20T04:09:50;7.50;;;1.97;;
28834;SDS011;15969;51.536;11.884;2022-09-20T04:15:25;6.33;;;1.70;;
28834;SDS011;15969;51.536;11.884;2022-09-20T04:21:09;10.57;;;2.57;;
28834;SDS011;15969;51.536;11.884;2022-09-20T04:26:23;6.67;;;2.43;;
28834;SDS011;15969;51.536;11.884;2022-09-20T04:38:15;6.37;;;2.43;;
28834;SDS011;15969;51.536;11.884;2022-09-20T04:41:04;9.37;;;3.40;;
28834;SDS011;15969;51.536;11.884;2022-09-20T04:43:50;6.23;;;2.80;;
28834;SDS011;15969;51.536;11.884;2022-09-20T04:46:28;8.37;;;3.23;;
28834;SDS011;15969;51.536;11.884;2022-09-20T04:58:09;9.70;;;3.63;;
28834;SDS011;15969;51.536;11.884;2022-09-20T05:09:27;9.50;;;2.53;;
28834;SDS011;15969;51.536;11.884;2022-09-20T05:12:20;10.27;;;2.80;;
28834;SDS011;15969;51.536;11.884;2022-09-20T05:20:41;8.00;;;2.73;;
28834;SDS011;15969;51.536;11.884;2022-09-20T05:23:31;8.17;;;3.33;;
28834;SDS011;15969;51.536;11.884;2022-09-20T05:26:11;6.87;;;2.50;;
28834;SDS011;15969;51.536;11.884;2022-09-20T05:28:48;6.43;;;2.70;;
28834;SDS011;15969;51.536;11.884;2022-09-20T05:39:07;8.13;;;2.40;;
28834;SDS011;15969;51.536;11.884;2022-09-20T05:42:13;5.47;;;2.00;;
28834;SDS011;15969;51.536;11.884;2022-09-20T05:45:18;9.33;;;2.43;;
28834;SDS011;15969;51.536;11.884;2022-09-20T05:47:51;4.47;;;2.00;;
28834;SDS011;15969;51.536;11.884;2022-09-20T06:01:24;9.17;;;3.13;;
28834;SDS011;15969;51.536;11.884;2022-09-20T06:04:06;3.43;;;2.27;;
28834;SDS011;15969;51.536;11.884;2022-09-20T06:09:20;6.60;;;2.33;;
28834;SDS011;15969;51.536;11.884;2022-09-20T06:12:29;8.83;;;2.57;;
28834;SDS011;15969;51.536;11.884;2022-09-20T06:15:19;5.80;;;2.27;;
28834;SDS011;15969;51.536;11.884;2022-09-20T06:18:17;5.97;;;2.63;;
28834;SDS011;15969;51.536;11.884;2022-09-20T06:20:44;12.73;;;3.10;;
28834;SDS011;15969;51.536;11.884;2022-09-20T06:23:20;7.20;;;4.23;;
28834;SDS011;15969;51.536;11.884;2022-09-20T06:25:47;12.00;;;5.23;;
28834;SDS011;15969;51.536;11.884;2022-09-20T06:28:19;10.80;;;5.77;;
28834;SDS011;15969;51.536;11.884;2022-09-20T06:30:48;17.23;;;8.60;;
28834;SDS011;15969;51.536;11.884;2022-09-20T06:33:16;12.17;;;7.43;;
28834;SDS011;15969;51.536;11.884;2022-09-20T06:38:51;13.00;;;8.57;;
28834;SDS011;15969;51.536;11.884;2022-09-20T06:42:00;16.03;;;8.57;;
28834;SDS011;15969;51.536;11.884;2022-09-20T06:44:26;13.40;;;9.13;;
28834;SDS011;15969;51.536;11.884;2022-09-20T06:46:51;14.20;;;8.67;;
28834;SDS011;15969;51.536;11.884;2022-09-20T06:49:18;14.53;;;8.17;;
28834;SDS011;15969;51.536;11.884;2022-09-20T06:51:44;18.90;;;8.07;;
28834;SDS011;15969;51.536;11.884;2022-09-20T06:54:13;16.03;;;7.87;;
28834;SDS011;15969;51.536;11.884;2022-09-20T06:56:42;16.47;;;8.93;;
28834;SDS011;15969;51.536;11.884;2022-09-20T06:59:09;14.40;;;8.23;;
28834;SDS011;15969;51.536;11.884;2022-09-20T07:01:35;17.57;;;9.53;;
28834;SDS011;15969;51.536;11.884;2022-09-20T07:04:02;23.30;;;10.23;;
28834;SDS011;15969;51.536;11.884;2022-09-20T07:06:30;17.20;;;9.37;;
28834;SDS011;15969;51.536;11.884;2022-09-20T07:08:56;17.43;;;9.70;;
28834;SDS011;15969;51.536;11.884;2022-09-20T07:11:21;15.87;;;8.47;;
28834;SDS011;15969;51.536;11.884;2022-09-20T07:13:51;15.77;;;8.93;;
28834;SDS011;15969;51.536;11.884;2022-09-20T07:16:18;14.03;;;8.70;;
28834;SDS011;15969;51.536;11.884;2022-09-20T07:18:44;19.50;;;9.17;;
28834;SDS011;15969;51.536;11.884;2022-09-20T07:21:11;15.53;;;8.90;;
28834;SDS011;15969;51.536;11.884;2022-09-20T07:23:38;14.43;;;8.83;;
28834;SDS011;15969;51.536;11.884;2022-09-20T07:26:04;16.80;;;8.60;;
28834;SDS011;15969;51.536;11.884;2022-09-20T07:28:31;18.57;;;9.23;;
28834;SDS011;15969;51.536;11.884;2022-09-20T07:30:58;17.80;;;9.17;;
28834;SDS011;15969;51.536;11.884;2022-09-20T07:33:24;15.93;;;9.20;;
28834;SDS011;15969;51.536;11.884;2022-09-20T07:35:50;15.00;;;8.93;;
28834;SDS011;15969;51.536;11.884;2022-09-20T07:38:20;16.33;;;8.90;;
28834;SDS011;15969;51.536;11.884;2022-09-20T07:40:59;12.17;;;8.27;;
28834;SDS011;15969;51.536;11.884;2022-09-20T07:43:26;14.17;;;8.17;;
28834;SDS011;15969;51.536;11.884;2022-09-20T07:45:53;14.27;;;8.00;;
28834;SDS011;15969;51.536;11.884;2022-09-20T07:48:23;21.73;;;9.07;;
28834;SDS011;15969;51.536;11.884;2022-09-20T07:50:57;9.93;;;7.93;;
28834;SDS011;15969;51.536;11.884;2022-09-20T07:53:26;15.60;;;9.07;;
28834;SDS011;15969;51.536;11.884;2022-09-20T07:56:01;15.83;;;8.90;;
28834;SDS011;15969;51.536;11.884;2022-09-20T07:58:29;14.53;;;8.37;;
28834;SDS011;15969;51.536;11.884;2022-09-20T08:00:58;14.73;;;9.30;;
28834;SDS011;15969;51.536;11.884;2022-09-20T08:03:29;13.47;;;8.03;;
28834;SDS011;15969;51.536;11.884;2022-09-20T08:05:59;11.87;;;7.40;;
28834;SDS011;15969;51.536;11.884;2022-09-20T08:08:25;13.23;;;7.43;;
28834;SDS011;15969;51.536;11.884;2022-09-20T08:10:51;16.10;;;8.23;;
28834;SDS011;15969;51.536;11.884;2022-09-20T08:13:16;11.57;;;7.93;;
28834;SDS011;15969;51.536;11.884;2022-09-20T08:15:42;12.63;;;8.37;;
28834;SDS011;15969;51.536;11.884;2022-09-20T08:18:07;14.33;;;8.17;;
28834;SDS011;15969;51.536;11.884;2022-09-20T08:20:34;11.77;;;8.03;;
28834;SDS011;15969;51.536;11.884;2022-09-20T08:23:01;14.40;;;8.30;;
28834;SDS011;15969;51.536;11.884;2022-09-20T08:25:27;10.07;;;7.70;;
28834;SDS011;15969;51.536;11.884;2022-09-20T08:27:53;12.30;;;7.83;;
28834;SDS011;15969;51.536;11.884;2022-09-20T08:30:19;15.13;;;7.77;;
28834;SDS011;15969;51.536;11.884;2022-09-20T08:32:44;11.10;;;7.47;;
28834;SDS011;15969;51.536;11.884;2022-09-20T08:35:10;13.90;;;7.93;;
28834;SDS011;15969;51.536;11.884;2022-09-20T08:37:36;11.17;;;8.30;;
28834;SDS011;15969;51.536;11.884;2022-09-20T08:40:02;13.13;;;8.43;;
28834;SDS011;15969;51.536;11.884;2022-09-20T08:45:04;9.73;;;7.37;;
28834;SDS011;15969;51.536;11.884;2022-09-20T08:47:36;7.60;;;6.80;;
28834;SDS011;15969;51.536;11.884;2022-09-20T08:50:06;11.13;;;6.60;;
28834;SDS011;15969;51.536;11.884;2022-09-20T08:52:35;12.57;;;7.00;;
28834;SDS011;15969;51.536;11.884;2022-09-20T08:55:17;10.53;;;7.63;;
28834;SDS011;15969;51.536;11.884;2022-09-20T08:57:48;10.90;;;8.03;;
28834;SDS011;15969;51.536;11.884;2022-09-20T09:00:17;10.43;;;7.80;;
28834;SDS011;15969;51.536;11.884;2022-09-20T09:02:53;15.10;;;8.93;;
28834;SDS011;15969;51.536;11.884;2022-09-20T09:08:01;13.83;;;9.07;;
28834;SDS011;15969;51.536;11.884;2022-09-20T09:10:32;12.17;;;8.57;;
28834;SDS011;15969;51.536;11.884;2022-09-20T09:13:02;13.03;;;8.07;;
28834;SDS011;15969;51.536;11.884;2022-09-20T09:15:30;13.03;;;8.67;;
28834;SDS011;15969;51.536;11.884;2022-09-20T09:17:58;12.47;;;7.80;;
28834;SDS011;15969;51.536;11.884;2022-09-20T09:20:24;11.07;;;8.47;;
28834;SDS011;15969;51.536;11.884;2022-09-20T09:23:03;19.27;;;9.43;;
28834;SDS011;15969;51.536;11.884;2022-09-20T09:25:37;14.97;;;8.63;;
28834;SDS011;15969;51.536;11.884;2022-09-20T09:30:35;11.07;;;8.50;;
28834;SDS011;15969;51.536;11.884;2022-09-20T09:35:51;11.90;;;8.27;;
28834;SDS011;15969;51.536;11.884;2022-09-20T09:38:21;8.77;;;7.43;;
28834;SDS011;15969;51.536;11.884;2022-09-20T09:40:59;10.10;;;8.27;;
28834;SDS011;15969;51.536;11.884;2022-09-20T09:43:29;13.77;;;8.13;;
28834;SDS011;15969;51.536;11.884;2022-09-20T09:46:15;14.10;;;8.80;;
28834;SDS011;15969;51.536;11.884;2022-09-20T09:48:42;11.07;;;7.70;;
28834;SDS011;15969;51.536;11.884;2022-09-20T09:51:14;8.27;;;7.47;;
28834;SDS011;15969;51.536;11.884;2022-09-20T09:53:42;9.83;;;7.53;;
28834;SDS011;15969;51.536;11.884;2022-09-20T09:56:19;12.03;;;7.87;;
28834;SDS011;15969;51.536;11.884;2022-09-20T09:58:50;15.23;;;7.90;;
28834;SDS011;15969;51.536;11.884;2022-09-20T10:01:32;12.80;;;7.97;;
28834;SDS011;15969;51.536;11.884;2022-09-20T10:04:17;11.10;;;7.73;;
28834;SDS011;15969;51.536;11.884;2022-09-20T10:07:08;10.27;;;7.30;;
28834;SDS011;15969;51.536;11.884;2022-09-20T10:10:00;10.53;;;6.97;;
28834;SDS011;15969;51.536;11.884;2022-09-20T10:12:49;7.77;;;6.67;;
28834;SDS011;15969;51.536;11.884;2022-09-20T10:34:39;6.00;;;5.13;;
28834;SDS011;15969;51.536;11.884;2022-09-20T10:40:32;7.27;;;5.60;;
28834;SDS011;15969;51.536;11.884;2022-09-20T10:44:09;9.20;;;4.60;;
28834;SDS011;15969;51.536;11.884;2022-09-20T10:46:31;5.47;;;4.83;;
28834;SDS011;15969;51.536;11.884;2022-09-20T10:49:34;7.70;;;4.80;;
28834;SDS011;15969;51.536;11.884;2022-09-20T10:52:14;6.00;;;4.70;;
28834;SDS011;15969;51.536;11.884;2022-09-20T10:55:16;9.83;;;4.27;;
28834;SDS011;15969;51.536;11.884;2022-09-20T11:08:51;9.53;;;6.20;;
28834;SDS011;15969;51.536;11.884;2022-09-20T11:11:25;7.03;;;5.10;;
28834;SDS011;15969;51.536;11.884;2022-09-20T11:14:03;5.43;;;4.70;;
28834;SDS011;15969;51.536;11.884;2022-09-20T11:16:41;5.23;;;3.50;;
28834;SDS011;15969;51.536;11.884;2022-09-20T11:19:17;5.57;;;3.23;;
28834;SDS011;15969;51.536;11.884;2022-09-20T11:21:53;5.70;;;3.13;;
28834;SDS011;15969;51.536;11.884;2022-09-20T11:24:44;5.30;;;4.37;;
28834;SDS011;15969;51.536;11.884;2022-09-20T11:27:19;8.30;;;5.83;;
28834;SDS011;15969;51.536;11.884;2022-09-20T11:32:50;5.67;;;4.40;;
28834;SDS011;15969;51.536;11.884;2022-09-20T11:35:25;8.60;;;4.70;;
28834;SDS011;15969;51.536;11.884;2022-09-20T11:40:39;12.23;;;4.07;;
28834;SDS011;15969;51.536;11.884;2022-09-20T11:43:09;8.00;;;4.10;;
28834;SDS011;15969;51.536;11.884;2022-09-20T11:45:37;6.33;;;3.83;;
28834;SDS011;15969;51.536;11.884;2022-09-20T11:48:15;5.77;;;4.07;;
28834;SDS011;15969;51.536;11.884;2022-09-20T11:54:02;5.73;;;2.27;;
28834;SDS011;15969;51.536;11.884;2022-09-20T11:56:50;3.77;;;2.70;;
28834;SDS011;15969;51.536;11.884;2022-09-20T11:59:21;4.27;;;2.43;;
28834;SDS011;15969;51.536;11.884;2022-09-20T12:01:55;3.37;;;1.97;;
28834;SDS011;15969;51.536;11.884;2022-09-20T12:04:33;5.63;;;1.80;;
28834;SDS011;15969;51.536;11.884;2022-09-20T12:09:32;4.47;;;2.20;;
28834;SDS011;15969;51.536;11.884;2022-09-20T12:12:14;4.23;;;2.73;;
28834;SDS011;15969;51.536;11.884;2022-09-20T12:14:40;3.20;;;2.33;;
28834;SDS011;15969;51.536;11.884;2022-09-20T12:17:40;2.50;;;2.10;;
28834;SDS011;15969;51.536;11.884;2022-09-20T12:26:02;6.90;;;2.00;;
28834;SDS011;15969;51.536;11.884;2022-09-20T12:28:40;3.23;;;2.13;;
28834;SDS011;15969;51.536;11.884;2022-09-20T12:36:26;4.43;;;1.90;;
28834;SDS011;15969;51.536;11.884;2022-09-20T12:41:47;2.10;;;1.90;;
28834;SDS011;15969;51.536;11.884;2022-09-20T12:47:22;4.57;;;2.30;;
28834;SDS011;15969;51.536;11.884;2022-09-20T12:49:51;5.37;;;1.80;;
28834;SDS011;15969;51.536;11.884;2022-09-20T12:52:38;2.70;;;1.53;;
28834;SDS011;15969;51.536;11.884;2022-09-20T12:55:35;4.40;;;2.20;;
28834;SDS011;15969;51.536;11.884;2022-09-20T12:58:07;3.80;;;2.20;;
28834;SDS011;15969;51.536;11.884;2022-09-20T13:00:45;3.10;;;2.10;;
28834;SDS011;15969;51.536;11.884;2022-09-20T13:08:08;3.30;;;1.80;;
28834;SDS011;15969;51.536;11.884;2022-09-20T13:10:43;5.37;;;1.97;;
28834;SDS011;15969;51.536;11.884;2022-09-20T13:13:20;4.30;;;2.13;;
28834;SDS011;15969;51.536;11.884;2022-09-20T13:15:55;2.90;;;2.20;;
28834;SDS011;15969;51.536;11.884;2022-09-20T13:18:21;2.53;;;1.77;;
28834;SDS011;15969;51.536;11.884;2022-09-20T13:20:50;3.47;;;1.80;;
28834;SDS011;15969;51.536;11.884;2022-09-20T13:23:17;3.27;;;1.37;;
28834;SDS011;15969;51.536;11.884;2022-09-20T13:25:47;3.40;;;1.67;;
28834;SDS011;15969;51.536;11.884;2022-09-20T13:30:54;3.20;;;1.67;;
28834;SDS011;15969;51.536;11.884;2022-09-20T13:33:44;1.03;;;0.80;;
28834;SDS011;15969;51.536;11.884;2022-09-20T13:36:10;2.93;;;1.00;;
28834;SDS011;15969;51.536;11.884;2022-09-20T13:38:35;1.77;;;1.10;;
28834;SDS011;15969;51.536;11.884;2022-09-20T13:41:10;2.33;;;0.93;;
28834;SDS011;15969;51.536;11.884;2022-09-20T13:46:07;4.77;;;1.63;;
28834;SDS011;15969;51.536;11.884;2022-09-20T13:48:37;2.10;;;1.70;;
28834;SDS011;15969;51.536;11.884;2022-09-20T13:51:13;3.63;;;1.57;;
28834;SDS011;15969;51.536;11.884;2022-09-20T13:53:41;4.03;;;1.67;;
28834;SDS011;15969;51.536;11.884;2022-09-20T13:56:41;3.50;;;1.63;;
28834;SDS011;15969;51.536;11.884;2022-09-20T13:59:03;1.80;;;0.90;;
28834;SDS011;15969;51.536;11.884;2022-09-20T14:01:32;2.20;;;1.20;;
28834;SDS011;15969;51.536;11.884;2022-09-20T14:04:04;3.93;;;1.13;;
28834;SDS011;15969;51.536;11.884;2022-09-20T14:06:31;4.03;;;1.30;;
28834;SDS011;15969;51.536;11.884;2022-09-20T14:08:58;3.27;;;1.30;;
28834;SDS011;15969;51.536;11.884;2022-09-20T14:11:27;2.23;;;1.20;;
28834;SDS011;15969;51.536;11.884;2022-09-20T14:13:55;1.70;;;1.00;;
28834;SDS011;15969;51.536;11.884;2022-09-20T14:16:23;2.47;;;1.23;;
28834;SDS011;15969;51.536;11.884;2022-09-20T14:18:52;1.20;;;0.93;;
28834;SDS011;15969;51.536;11.884;2022-09-20T14:21:25;1.47;;;1.13;;
28834;SDS011;15969;51.536;11.884;2022-09-20T14:23:54;2.03;;;0.87;;
28834;SDS011;15969;51.536;11.884;2022-09-20T14:32:08;0.90;;;0.70;;
28834;SDS011;15969;51.536;11.884;2022-09-20T14:34:57;1.67;;;1.10;;
28834;SDS011;15969;51.536;11.884;2022-09-20T14:40:02;2.13;;;1.27;;
28834;SDS011;15969;51.536;11.884;2022-09-20T14:42:42;2.70;;;1.17;;
28834;SDS011;15969;51.536;11.884;2022-09-20T14:45:22;1.77;;;0.90;;
28834;SDS011;15969;51.536;11.884;2022-09-20T14:47:57;1.90;;;0.80;;
28834;SDS011;15969;51.536;11.884;2022-09-20T14:50:29;1.23;;;0.80;;
28834;SDS011;15969;51.536;11.884;2022-09-20T14:55:35;3.13;;;1.10;;
28834;SDS011;15969;51.536;11.884;2022-09-20T14:58:06;3.63;;;0.80;;
28834;SDS011;15969;51.536;11.884;2022-09-20T15:00:51;1.85;;;0.80;;
28834;SDS011;15969;51.536;11.884;2022-09-20T15:03:35;3.23;;;1.00;;
28834;SDS011;15969;51.536;11.884;2022-09-20T15:06:04;1.00;;;0.90;;
28834;SDS011;15969;51.536;11.884;2022-09-20T15:08:33;2.22;;;1.00;;
28834;SDS011;15969;51.536;11.884;2022-09-20T15:10:59;1.38;;;0.98;;
28834;SDS011;15969;51.536;11.884;2022-09-20T15:13:25;2.17;;;1.00;;
28834;SDS011;15969;51.536;11.884;2022-09-20T15:15:51;1.33;;;0.90;;
28834;SDS011;15969;51.536;11.884;2022-09-20T15:20:46;1.42;;;1.00;;
28834;SDS011;15969;51.536;11.884;2022-09-20T15:23:13;1.35;;;0.80;;
28834;SDS011;15969;51.536;11.884;2022-09-20T15:25:38;1.63;;;1.08;;
28834;SDS011;15969;51.536;11.884;2022-09-20T15:28:04;2.45;;;0.88;;
28834;SDS011;15969;51.536;11.884;2022-09-20T15:30:31;1.55;;;0.85;;
28834;SDS011;15969;51.536;11.884;2022-09-20T15:32:57;1.17;;;0.82;;
28834;SDS011;15969;51.536;11.884;2022-09-20T15:35:24;0.82;;;0.80;;
28834;SDS011;15969;51.536;11.884;2022-09-20T15:37:50;1.90;;;0.70;;
28834;SDS011;15969;51.536;11.884;2022-09-20T15:40:16;1.93;;;0.83;;
28834;SDS011;15969;51.536;11.884;2022-09-20T15:42:41;0.60;;;0.50;;
28834;SDS011;15969;51.536;11.884;2022-09-20T15:45:07;1.80;;;0.70;;
28834;SDS011;15969;51.536;11.884;2022-09-20T15:47:35;0.60;;;0.50;;
28834;SDS011;15969;51.536;11.884;2022-09-20T15:50:02;5.05;;;0.75;;
28834;SDS011;15969;51.536;11.884;2022-09-20T15:52:37;2.70;;;0.93;;
28834;SDS011;15969;51.536;11.884;2022-09-20T15:55:06;2.00;;;0.97;;
28834;SDS011;15969;51.536;11.884;2022-09-20T15:57:32;1.07;;;0.97;;
28834;SDS011;15969;51.536;11.884;2022-09-20T15:59:59;1.40;;;0.90;;
28834;SDS011;15969;51.536;11.884;2022-09-20T16:02:25;1.20;;;0.80;;
28834;SDS011;15969;51.536;11.884;2022-09-20T16:04:51;1.17;;;0.90;;
28834;SDS011;15969;51.536;11.884;2022-09-20T16:07:20;2.07;;;0.97;;
28834;SDS011;15969;51.536;11.884;2022-09-20T16:09:49;3.13;;;0.90;;
28834;SDS011;15969;51.536;11.884;2022-09-20T16:12:15;2.63;;;1.20;;
28834;SDS011;15969;51.536;11.884;2022-09-20T16:14:41;1.57;;;1.23;;
28834;SDS011;15969;51.536;11.884;2022-09-20T16:17:06;1.97;;;1.20;;
28834;SDS011;15969;51.536;11.884;2022-09-20T16:19:32;1.10;;;1.00;;
28834;SDS011;15969;51.536;11.884;2022-09-20T16:21:57;1.20;;;1.00;;
28834;SDS011;15969;51.536;11.884;2022-09-20T16:24:24;1.20;;;1.10;;
28834;SDS011;15969;51.536;11.884;2022-09-20T16:26:51;1.47;;;1.03;;
28834;SDS011;15969;51.536;11.884;2022-09-20T16:29:16;1.57;;;1.30;;
28834;SDS011;15969;51.536;11.884;2022-09-20T16:31:43;1.43;;;1.20;;
28834;SDS011;15969;51.536;11.884;2022-09-20T16:34:16;1.40;;;1.30;;
28834;SDS011;15969;51.536;11.884;2022-09-20T16:36:47;1.97;;;1.53;;
28834;SDS011;15969;51.536;11.884;2022-09-20T16:39:15;1.93;;;1.47;;
28834;SDS011;15969;51.536;11.884;2022-09-20T16:41:42;3.60;;;1.53;;
28834;SDS011;15969;51.536;11.884;2022-09-20T16:44:09;1.67;;;1.43;;
28834;SDS011;15969;51.536;11.884;2022-09-20T16:46:35;2.20;;;1.60;;
28834;SDS011;15969;51.536;11.884;2022-09-20T16:49:02;3.10;;;1.53;;
28834;SDS011;15969;51.536;11.884;2022-09-20T16:51:30;1.30;;;1.00;;
28834;SDS011;15969;51.536;11.884;2022-09-20T16:54:05;2.20;;;1.40;;
28834;SDS011;15969;51.536;11.884;2022-09-20T16:56:35;1.77;;;1.67;;
28834;SDS011;15969;51.536;11.884;2022-09-20T16:59:02;2.53;;;2.00;;
28834;SDS011;15969;51.536;11.884;2022-09-20T17:01:30;3.53;;;1.93;;
28834;SDS011;15969;51.536;11.884;2022-09-20T17:03:56;2.50;;;1.90;;
28834;SDS011;15969;51.536;11.884;2022-09-20T17:06:23;2.00;;;1.77;;
28834;SDS011;15969;51.536;11.884;2022-09-20T17:08:52;1.40;;;1.30;;
28834;SDS011;15969;51.536;11.884;2022-09-20T17:11:20;1.83;;;1.27;;
28834;SDS011;15969;51.536;11.884;2022-09-20T17:13:48;1.77;;;1.50;;
28834;SDS011;15969;51.536;11.884;2022-09-20T17:16:22;3.30;;;1.20;;
28834;SDS011;15969;51.536;11.884;2022-09-20T17:19:06;3.80;;;1.77;;
28834;SDS011;15969;51.536;11.884;2022-09-20T17:21:34;1.73;;;1.40;;
28834;SDS011;15969;51.536;11.884;2022-09-20T17:24:00;2.27;;;1.50;;
28834;SDS011;15969;51.536;11.884;2022-09-20T17:28:58;1.50;;;1.40;;
28834;SDS011;15969;51.536;11.884;2022-09-20T17:31:26;1.80;;;1.70;;
28834;SDS011;15969;51.536;11.884;2022-09-20T17:33:57;2.80;;;1.70;;
28834;SDS011;15969;51.536;11.884;2022-09-20T17:36:28;2.20;;;1.57;;
28834;SDS011;15969;51.536;11.884;2022-09-20T17:38:56;2.53;;;1.50;;
28834;SDS011;15969;51.536;11.884;2022-09-20T17:41:23;1.93;;;1.50;;
28834;SDS011;15969;51.536;11.884;2022-09-20T17:43:56;1.77;;;1.60;;
28834;SDS011;15969;51.536;11.884;2022-09-20T17:46:26;3.10;;;1.70;;
28834;SDS011;15969;51.536;11.884;2022-09-20T17:48:55;2.10;;;1.90;;
28834;SDS011;15969;51.536;11.884;2022-09-20T17:51:25;1.73;;;1.63;;
28834;SDS011;15969;51.536;11.884;2022-09-20T17:53:52;2.67;;;1.70;;
28834;SDS011;15969;51.536;11.884;2022-09-20T17:56:19;10.30;;;1.90;;
28834;SDS011;15969;51.536;11.884;2022-09-20T17:58:47;2.97;;;1.63;;
28834;SDS011;15969;51.536;11.884;2022-09-20T18:01:14;1.93;;;1.77;;
28834;SDS011;15969;51.536;11.884;2022-09-20T18:03:42;2.40;;;1.90;;
28834;SDS011;15969;51.536;11.884;2022-09-20T18:08:36;3.07;;;2.53;;
28834;SDS011;15969;51.536;11.884;2022-09-20T18:11:01;2.80;;;2.27;;
28834;SDS011;15969;51.536;11.884;2022-09-20T18:13:27;4.97;;;2.67;;
28834;SDS011;15969;51.536;11.884;2022-09-20T18:15:54;5.80;;;3.30;;
28834;SDS011;15969;51.536;11.884;2022-09-20T18:18:19;3.23;;;2.93;;
28834;SDS011;15969;51.536;11.884;2022-09-20T18:20:45;3.00;;;2.70;;
28834;SDS011;15969;51.536;11.884;2022-09-20T18:23:11;3.20;;;2.63;;
28834;SDS011;15969;51.536;11.884;2022-09-20T18:25:37;2.47;;;2.27;;
28834;SDS011;15969;51.536;11.884;2022-09-20T18:28:21;2.73;;;2.50;;
28834;SDS011;15969;51.536;11.884;2022-09-20T18:30:46;2.90;;;2.70;;
28834;SDS011;15969;51.536;11.884;2022-09-20T18:33:14;6.90;;;3.17;;
28834;SDS011;15969;51.536;11.884;2022-09-20T18:35:41;4.97;;;3.63;;
28834;SDS011;15969;51.536;11.884;2022-09-20T18:38:07;6.30;;;3.40;;
28834;SDS011;15969;51.536;11.884;2022-09-20T18:40:33;5.10;;;2.80;;
28834;SDS011;15969;51.536;11.884;2022-09-20T18:43:01;5.90;;;2.63;;
28834;SDS011;15969;51.536;11.884;2022-09-20T18:45:26;4.17;;;3.80;;
28834;SDS011;15969;51.536;11.884;2022-09-20T18:47:52;3.50;;;3.10;;
28834;SDS011;15969;51.536;11.884;2022-09-20T19:00:27;5.67;;;3.40;;
28834;SDS011;15969;51.536;11.884;2022-09-20T19:05:31;3.40;;;3.10;;
28834;SDS011;15969;51.536;11.884;2022-09-20T19:08:20;4.10;;;3.73;;
28834;SDS011;15969;51.536;11.884;2022-09-20T19:10:59;3.73;;;3.10;;
28834;SDS011;15969;51.536;11.884;2022-09-20T19:13:38;3.30;;;3.00;;
28834;SDS011;15969;51.536;11.884;2022-09-20T19:27:09;5.60;;;2.73;;
28834;SDS011;15969;51.536;11.884;2022-09-20T19:29:36;3.27;;;2.43;;
28834;SDS011;15969;51.536;11.884;2022-09-20T19:32:02;3.10;;;2.80;;
28834;SDS011;15969;51.536;11.884;2022-09-20T19:34:29;3.00;;;2.70;;
28834;SDS011;15969;51.536;11.884;2022-09-20T19:39:50;2.97;;;2.73;;
28834;SDS011;15969;51.536;11.884;2022-09-20T19:47:40;3.33;;;2.53;;
28834;SDS011;15969;51.536;11.884;2022-09-20T19:50:22;3.33;;;2.47;;